createdAt,value
2022-08-28T00:01:57.510Z,4.05
2022-08-28T00:04:24.063Z,4.20
2022-08-28T00:06:50.607Z,4.10
2022-08-28T00:09:17.177Z,4.13
2022-08-28T00:11:43.725Z,4.13
2022-08-28T00:14:10.807Z,4.40
2022-08-28T00:16:37.407Z,4.35
2022-08-28T00:19:05.074Z,3.67
2022-08-28T00:21:33.107Z,4.20
2022-08-28T00:24:00.415Z,4.65
2022-08-28T00:26:45.638Z,3.80
2022-08-28T00:29:12.374Z,4.60
2022-08-28T00:31:39.601Z,3.88
2022-08-28T00:34:07.750Z,4.00
2022-08-28T00:36:34.535Z,4.35
2022-08-28T00:39:01.974Z,3.53
2022-08-28T00:41:31.199Z,3.97
2022-08-28T00:44:12.059Z,4.07
2022-08-28T00:46:39.091Z,4.47
2022-08-28T00:49:06.431Z,4.60
2022-08-28T00:51:52.706Z,4.03
2022-08-28T00:54:19.863Z,3.90
2022-08-28T00:56:47.536Z,4.07
2022-08-28T00:59:17.907Z,3.95
2022-08-28T01:01:46.016Z,4.10
2022-08-28T01:04:16.843Z,4.13
2022-08-28T01:06:45.609Z,3.95
2022-08-28T01:09:12.437Z,4.22
2022-08-28T01:11:44.062Z,4.60
2022-08-28T01:14:13.210Z,3.88
2022-08-28T01:16:41.305Z,3.88
2022-08-28T01:19:13.168Z,2.92
2022-08-28T01:22:02.990Z,3.97
2022-08-28T01:24:31.110Z,4.25
2022-08-28T01:26:57.642Z,4.32
2022-08-28T01:29:24.168Z,4.45
2022-08-28T01:31:50.714Z,3.78
2022-08-28T01:34:17.241Z,4.50
2022-08-28T01:36:44.123Z,4.32
2022-08-28T01:39:18.041Z,4.65
2022-08-28T01:41:47.389Z,3.70
2022-08-28T01:44:18.321Z,3.55
2022-08-28T01:46:45.731Z,4.28
2022-08-28T01:49:12.616Z,4.00
2022-08-28T01:51:41.050Z,3.88
2022-08-28T01:54:09.892Z,3.83
2022-08-28T01:56:37.721Z,4.00
2022-08-28T01:59:06.962Z,4.32
2022-08-28T02:01:33.548Z,4.20
2022-08-28T02:04:00.757Z,4.15
2022-08-28T02:06:27.330Z,3.80
2022-08-28T02:08:55.500Z,3.78
2022-08-28T02:11:26.642Z,4.60
2022-08-28T02:13:54.269Z,3.50
2022-08-28T02:16:21.373Z,3.70
2022-08-28T02:18:48.910Z,3.85
2022-08-28T02:21:15.437Z,4.07
2022-08-28T02:23:44.120Z,4.57
2022-08-28T02:26:12.770Z,3.70
2022-08-28T02:28:39.557Z,4.25
2022-08-28T02:31:09.210Z,4.20
2022-08-28T02:33:43.479Z,4.20
2022-08-28T02:36:11.889Z,4.43
2022-08-28T02:38:39.046Z,4.80
2022-08-28T02:41:06.781Z,4.28
2022-08-28T02:43:33.542Z,5.00
2022-08-28T02:46:00.339Z,4.60
2022-08-28T02:48:31.575Z,4.43
2022-08-28T02:51:00.406Z,5.10
2022-08-28T02:53:27.562Z,4.13
2022-08-28T02:55:54.262Z,5.40
2022-08-28T02:58:20.941Z,4.13
2022-08-28T03:00:47.526Z,5.13
2022-08-28T03:03:14.200Z,5.05
2022-08-28T03:05:40.801Z,5.15
2022-08-28T03:08:07.511Z,6.13
2022-08-28T03:10:34.046Z,5.05
2022-08-28T03:13:00.553Z,5.25
2022-08-28T03:15:27.102Z,5.25
2022-08-28T03:17:53.659Z,5.30
2022-08-28T03:20:20.789Z,5.15
2022-08-28T03:23:06.083Z,5.05
2022-08-28T03:25:32.608Z,5.20
2022-08-28T03:27:59.150Z,5.10
2022-08-28T03:30:25.951Z,4.97
2022-08-28T03:32:53.539Z,5.13
2022-08-28T03:35:20.333Z,5.65
2022-08-28T03:37:46.866Z,4.88
2022-08-28T03:40:14.518Z,5.25
2022-08-28T03:42:41.111Z,5.72
2022-08-28T03:45:09.338Z,5.40
2022-08-28T03:47:41.662Z,5.97
2022-08-28T03:52:39.342Z,5.97
2022-08-28T03:55:09.121Z,5.63
2022-08-28T03:57:35.997Z,5.13
2022-08-28T04:00:06.078Z,6.80
2022-08-28T04:02:39.066Z,5.28
2022-08-28T04:05:06.126Z,4.70
2022-08-28T04:07:32.636Z,4.63
2022-08-28T04:09:59.190Z,4.60
2022-08-28T04:12:25.711Z,4.30
2022-08-28T04:14:54.177Z,4.60
2022-08-28T04:17:20.712Z,4.53
2022-08-28T04:19:47.220Z,4.35
2022-08-28T04:22:13.869Z,4.45
2022-08-28T04:24:40.376Z,4.30
2022-08-28T04:27:06.908Z,5.25
2022-08-28T04:29:33.465Z,5.07
2022-08-28T04:32:00.163Z,4.72
2022-08-28T04:34:26.801Z,4.75
2022-08-28T04:36:54.012Z,4.45
2022-08-28T04:39:20.574Z,5.22
2022-08-28T04:41:47.204Z,4.47
2022-08-28T04:44:13.763Z,4.50
2022-08-28T04:46:40.418Z,5.40
2022-08-28T04:49:06.950Z,4.57
2022-08-28T04:51:33.471Z,4.68
2022-08-28T04:54:01.684Z,5.68
2022-08-28T04:56:28.278Z,6.25
2022-08-28T04:58:55.091Z,5.55
2022-08-28T05:01:24.523Z,4.65
2022-08-28T05:03:54.718Z,5.00
2022-08-28T05:06:22.799Z,5.00
2022-08-28T05:08:49.305Z,5.22
2022-08-28T05:11:34.184Z,4.93
2022-08-28T05:14:06.266Z,4.72
2022-08-28T05:16:39.124Z,5.80
2022-08-28T05:19:05.712Z,5.00
2022-08-28T05:21:32.214Z,4.82
2022-08-28T05:23:59.097Z,4.88
2022-08-28T05:26:27.032Z,4.85
2022-08-28T05:28:57.142Z,5.95
2022-08-28T05:31:24.465Z,4.97
2022-08-28T05:33:51.813Z,5.05
2022-08-28T05:36:19.573Z,5.20
2022-08-28T05:38:46.180Z,5.05
2022-08-28T05:41:18.918Z,5.65
2022-08-28T05:43:45.544Z,4.07
2022-08-28T05:46:12.093Z,4.80
2022-08-28T05:48:39.677Z,4.60
2022-08-28T05:51:11.250Z,5.30
2022-08-28T05:53:41.277Z,4.50
2022-08-28T05:56:13.353Z,4.82
2022-08-28T05:58:40.433Z,4.78
2022-08-28T06:01:23.255Z,5.05
2022-08-28T06:04:01.595Z,4.47
2022-08-28T06:06:30.126Z,4.45
2022-08-28T06:09:09.103Z,4.72
2022-08-28T06:11:35.907Z,4.45
2022-08-28T06:14:04.375Z,4.63
2022-08-28T06:16:32.239Z,4.97
2022-08-28T06:19:00.577Z,4.57
2022-08-28T06:21:28.035Z,4.40
2022-08-28T06:23:54.651Z,4.00
2022-08-28T06:26:21.169Z,4.40
2022-08-28T06:28:47.773Z,4.38
2022-08-28T06:31:24.498Z,3.40
2022-08-28T06:33:54.396Z,3.80
2022-08-28T06:36:21.472Z,3.97
2022-08-28T06:38:48.014Z,3.90
2022-08-28T06:41:15.453Z,3.63
2022-08-28T06:43:42.439Z,3.63
2022-08-28T06:46:09.104Z,3.13
2022-08-28T06:48:35.702Z,3.08
2022-08-28T06:51:09.488Z,3.63
2022-08-28T06:53:37.924Z,3.63
2022-08-28T06:56:08.800Z,3.25
2022-08-28T06:58:37.832Z,2.70
2022-08-28T07:01:17.461Z,3.20
2022-08-28T07:03:45.518Z,3.03
2022-08-28T07:06:13.970Z,2.70
2022-08-28T07:08:42.211Z,3.28
2022-08-28T07:11:19.015Z,2.78
2022-08-28T07:13:46.335Z,2.55
2022-08-28T07:16:14.850Z,2.28
2022-08-28T07:18:41.701Z,3.05
2022-08-28T07:21:12.342Z,3.15
2022-08-28T07:23:40.667Z,2.30
2022-08-28T07:26:09.719Z,2.70
2022-08-28T07:28:37.572Z,2.42
2022-08-28T07:31:13.467Z,2.35
2022-08-28T07:33:40.720Z,1.90
2022-08-28T07:36:15.757Z,2.10
2022-08-28T07:38:55.522Z,2.22
2022-08-28T07:41:24.868Z,3.10
2022-08-28T07:44:10.354Z,2.63
2022-08-28T07:46:38.317Z,2.58
2022-08-28T07:49:05.945Z,2.33
2022-08-28T07:51:32.457Z,2.25
2022-08-28T07:53:59.002Z,2.53
2022-08-28T07:56:27.428Z,2.58
2022-08-28T07:58:53.986Z,2.20
2022-08-28T08:01:20.522Z,2.38
2022-08-28T08:03:47.298Z,2.00
2022-08-28T08:06:16.088Z,2.00
2022-08-28T08:08:42.798Z,2.45
2022-08-28T08:11:11.627Z,2.08
2022-08-28T08:13:44.061Z,2.05
2022-08-28T08:16:14.139Z,2.33
2022-08-28T08:18:41.827Z,1.50
2022-08-28T08:21:11.771Z,2.13
2022-08-28T08:23:39.059Z,1.60
2022-08-28T08:26:09.173Z,2.08
2022-08-28T08:28:37.422Z,2.42
2022-08-28T08:31:09.945Z,1.90
2022-08-28T08:33:38.378Z,1.75
2022-08-28T08:36:08.849Z,1.63
2022-08-28T08:38:35.994Z,2.35
2022-08-28T08:41:20.842Z,1.38
2022-08-28T08:43:56.493Z,2.35
2022-08-28T08:46:46.346Z,1.40
2022-08-28T08:49:18.485Z,1.60
2022-08-28T08:51:52.994Z,1.67
2022-08-28T08:54:21.090Z,1.80
2022-08-28T08:56:48.246Z,1.63
2022-08-28T08:59:21.365Z,1.70
2022-08-28T09:02:01.253Z,2.08
2022-08-28T09:04:39.694Z,2.15
2022-08-28T09:07:23.076Z,1.75
2022-08-28T09:09:52.366Z,2.10
2022-08-28T09:12:23.076Z,2.17
2022-08-28T09:15:05.065Z,2.30
2022-08-28T09:17:34.427Z,1.75
2022-08-28T09:20:00.946Z,1.60
2022-08-28T09:22:27.461Z,1.92
2022-08-28T09:24:54.086Z,1.60
2022-08-28T09:27:33.091Z,1.88
2022-08-28T09:30:07.832Z,1.88
2022-08-28T09:32:45.653Z,1.90
2022-08-28T09:35:24.274Z,1.90
2022-08-28T09:37:51.154Z,2.08
2022-08-28T09:40:52.040Z,2.47
2022-08-28T09:43:26.947Z,2.17
2022-08-28T09:46:02.898Z,1.67
2022-08-28T09:48:40.272Z,1.77
2022-08-28T09:51:11.938Z,2.42
2022-08-28T09:53:54.550Z,1.50
2022-08-28T09:56:35.498Z,1.95
2022-08-28T09:59:06.379Z,2.00
2022-08-28T10:01:45.131Z,1.83
2022-08-28T10:04:15.657Z,1.70
2022-08-28T10:06:49.499Z,1.77
2022-08-28T10:09:22.049Z,1.60
2022-08-28T10:12:06.586Z,1.70
2022-08-28T10:14:41.841Z,1.70
2022-08-28T10:17:43.240Z,1.85
2022-08-28T10:20:18.262Z,1.70
2022-08-28T10:22:50.842Z,1.73
2022-08-28T10:25:21.839Z,1.80
2022-08-28T10:27:53.608Z,2.53
2022-08-28T10:30:22.918Z,1.80
2022-08-28T10:33:24.315Z,1.80
2022-08-28T10:36:06.614Z,1.70
2022-08-28T10:38:53.208Z,2.03
2022-08-28T10:41:27.310Z,2.00
2022-08-28T10:43:55.246Z,2.30
2022-08-28T10:46:41.739Z,1.77
2022-08-28T10:49:16.173Z,2.08
2022-08-28T10:52:06.407Z,1.75
2022-08-28T10:54:42.398Z,1.92
2022-08-28T10:57:27.768Z,2.17
2022-08-28T10:59:54.314Z,2.08
2022-08-28T11:02:22.753Z,1.80
2022-08-28T11:04:49.456Z,2.20
2022-08-28T11:07:25.099Z,2.35
2022-08-28T11:09:51.605Z,3.67
2022-08-28T11:12:19.590Z,1.67
2022-08-28T11:14:48.899Z,2.17
2022-08-28T11:17:25.188Z,2.33
2022-08-28T11:20:03.794Z,1.90
2022-08-28T11:22:40.567Z,1.85
2022-08-28T11:25:17.354Z,2.03
2022-08-28T11:28:14.652Z,1.60
2022-08-28T11:30:42.758Z,1.52
2022-08-28T11:33:43.357Z,1.80
2022-08-28T11:36:21.918Z,2.28
2022-08-28T11:38:51.179Z,2.40
2022-08-28T11:41:20.933Z,2.10
2022-08-28T11:43:50.719Z,1.70
2022-08-28T11:46:32.672Z,1.50
2022-08-28T11:49:01.318Z,2.50
2022-08-28T11:52:06.466Z,1.80
2022-08-28T11:54:54.258Z,2.13
2022-08-28T11:57:52.875Z,2.10
2022-08-28T12:00:23.230Z,1.65
2022-08-28T12:02:53.367Z,1.73
2022-08-28T12:05:32.240Z,2.40
2022-08-28T12:08:05.067Z,2.22
2022-08-28T12:10:31.673Z,1.90
2022-08-28T12:13:04.672Z,1.60
2022-08-28T12:15:31.235Z,2.08
2022-08-28T12:18:00.426Z,1.75
2022-08-28T12:20:34.900Z,1.92
2022-08-28T12:23:06.136Z,2.00
2022-08-28T12:25:42.074Z,2.03
2022-08-28T12:28:20.738Z,1.77
2022-08-28T12:31:19.579Z,2.10
2022-08-28T12:33:57.460Z,1.65
2022-08-28T12:36:28.591Z,1.95
2022-08-28T12:38:58.000Z,2.28
2022-08-28T12:41:25.998Z,1.60
2022-08-28T12:43:59.909Z,1.92
2022-08-28T12:46:35.041Z,2.13
2022-08-28T12:49:04.172Z,1.95
2022-08-28T12:51:36.703Z,2.63
2022-08-28T12:54:06.167Z,2.38
2022-08-28T12:56:35.176Z,1.90
2022-08-28T12:59:27.568Z,1.73
2022-08-28T13:01:54.804Z,2.25
2022-08-28T13:08:41.697Z,2.30
2022-08-28T13:11:08.331Z,1.98
2022-08-28T13:13:48.780Z,2.20
2022-08-28T13:16:35.842Z,2.00
2022-08-28T13:19:05.456Z,3.33
2022-08-28T13:21:58.799Z,1.70
2022-08-28T13:24:40.583Z,2.35
2022-08-28T13:27:16.296Z,1.67
2022-08-28T13:29:51.961Z,1.80
2022-08-28T13:32:28.351Z,1.80
2022-08-28T13:35:16.686Z,2.38
2022-08-28T13:37:44.775Z,1.95
2022-08-28T13:40:30.346Z,1.80
2022-08-28T13:43:03.309Z,1.98
2022-08-28T13:45:42.351Z,2.35
2022-08-28T13:48:14.402Z,1.90
2022-08-28T13:50:46.432Z,1.75
2022-08-28T13:53:14.762Z,1.80
2022-08-28T13:55:41.385Z,1.90
2022-08-28T13:58:07.926Z,1.50
2022-08-28T14:00:37.080Z,1.35
2022-08-28T14:03:22.271Z,1.90
2022-08-28T14:05:48.780Z,1.40
2022-08-28T14:08:15.306Z,1.70
2022-08-28T14:10:42.350Z,1.52
2022-08-28T14:13:08.928Z,1.50
2022-08-28T14:15:35.529Z,0.90
2022-08-28T14:18:02.040Z,1.67
2022-08-28T14:20:29.222Z,1.38
2022-08-28T14:22:55.745Z,2.00
2022-08-28T14:25:22.258Z,1.42
2022-08-28T14:27:48.786Z,2.33
2022-08-28T14:30:15.677Z,1.75
2022-08-28T14:32:42.171Z,1.50
2022-08-28T14:35:09.194Z,1.60
2022-08-28T14:37:36.038Z,1.25
2022-08-28T14:40:03.416Z,1.58
2022-08-28T14:42:29.976Z,1.92
2022-08-28T14:44:56.557Z,1.95
2022-08-28T14:47:24.811Z,1.50
2022-08-28T14:49:51.417Z,1.27
2022-08-28T14:52:19.351Z,1.40
2022-08-28T14:54:46.690Z,1.80
2022-08-28T14:57:13.615Z,2.10
2022-08-28T14:59:40.176Z,1.80
2022-08-28T15:02:06.791Z,1.40
2022-08-28T15:04:34.560Z,1.60
2022-08-28T15:07:02.830Z,1.13
2022-08-28T15:09:29.362Z,1.60
2022-08-28T15:11:56.142Z,0.85
2022-08-28T15:14:22.988Z,1.00
2022-08-28T15:16:49.592Z,1.13
2022-08-28T15:19:17.888Z,0.88
2022-08-28T15:21:51.159Z,1.10
2022-08-28T15:24:19.634Z,1.38
2022-08-28T15:26:46.796Z,1.10
2022-08-28T15:29:13.653Z,1.45
2022-08-28T15:31:43.025Z,1.40
2022-08-28T15:34:13.672Z,1.35
2022-08-28T15:36:41.774Z,1.00
2022-08-28T15:39:27.234Z,1.30
2022-08-28T15:41:54.482Z,1.30
2022-08-28T15:44:21.131Z,1.05
2022-08-28T15:46:54.101Z,1.70
2022-08-28T15:49:23.737Z,1.08
2022-08-28T15:51:51.556Z,1.05
2022-08-28T15:54:18.902Z,1.33
2022-08-28T15:56:46.214Z,1.17
2022-08-28T15:59:17.553Z,1.23
2022-08-28T16:01:45.084Z,1.33
2022-08-28T16:04:12.255Z,1.50
2022-08-28T16:06:38.771Z,1.33
2022-08-28T16:09:06.805Z,1.40
2022-08-28T16:11:33.748Z,1.30
2022-08-28T16:14:00.970Z,1.13
2022-08-28T16:16:27.547Z,1.35
2022-08-28T16:18:55.223Z,1.05
2022-08-28T16:21:22.514Z,1.50
2022-08-28T16:23:53.458Z,1.70
2022-08-28T16:26:20.511Z,1.20
2022-08-28T16:28:47.022Z,1.60
2022-08-28T16:31:19.258Z,1.35
2022-08-28T16:33:47.230Z,1.60
2022-08-28T16:36:15.569Z,1.40
2022-08-28T16:38:45.601Z,1.20
2022-08-28T16:41:13.469Z,1.40
2022-08-28T16:43:40.201Z,1.20
2022-08-28T16:46:19.444Z,1.45
2022-08-28T16:48:47.153Z,1.90
2022-08-28T16:51:14.553Z,1.83
2022-08-28T16:53:42.558Z,1.67
2022-08-28T16:56:10.733Z,2.60
2022-08-28T16:58:39.050Z,1.60
2022-08-28T17:01:06.347Z,1.90
2022-08-28T17:03:34.630Z,1.77
2022-08-28T17:06:12.178Z,1.63
2022-08-28T17:08:39.017Z,1.77
2022-08-28T17:11:06.514Z,1.40
2022-08-28T17:13:34.103Z,1.60
2022-08-28T17:16:00.883Z,1.73
2022-08-28T17:18:27.410Z,1.40
2022-08-28T17:21:12.665Z,1.73
2022-08-28T17:23:39.290Z,1.40
2022-08-28T17:26:06.079Z,1.77
2022-08-28T17:28:32.629Z,1.70
2022-08-28T17:30:59.447Z,1.50
2022-08-28T17:33:26.123Z,1.67
2022-08-28T17:35:55.046Z,1.90
2022-08-28T17:38:21.868Z,1.38
2022-08-28T17:40:48.454Z,1.30
2022-08-28T17:43:14.997Z,1.40
2022-08-28T17:45:41.657Z,1.52
2022-08-28T17:48:08.261Z,1.80
2022-08-28T17:50:34.830Z,2.47
2022-08-28T17:53:01.370Z,1.50
2022-08-28T17:55:27.973Z,1.52
2022-08-28T17:57:54.958Z,1.50
2022-08-28T18:00:21.715Z,1.63
2022-08-28T18:02:51.590Z,1.38
2022-08-28T18:05:18.507Z,1.48
2022-08-28T18:07:45.019Z,1.98
2022-08-28T18:10:12.226Z,1.80
2022-08-28T18:12:40.285Z,1.75
2022-08-28T18:15:08.113Z,1.30
2022-08-28T18:17:36.870Z,1.65
2022-08-28T18:20:06.075Z,1.40
2022-08-28T18:22:32.655Z,1.98
2022-08-28T18:24:59.192Z,1.80
2022-08-28T18:27:27.813Z,1.80
2022-08-28T18:29:54.355Z,1.70
2022-08-28T18:32:21.368Z,2.00
2022-08-28T18:34:47.883Z,1.50
2022-08-28T18:37:14.605Z,1.63
2022-08-28T18:39:42.280Z,1.92
2022-08-28T18:42:10.782Z,1.50
2022-08-28T18:44:37.306Z,1.77
2022-08-28T18:47:03.887Z,1.67
2022-08-28T18:49:30.411Z,1.67
2022-08-28T18:51:56.941Z,1.45
2022-08-28T18:54:23.524Z,1.70
2022-08-28T18:56:50.470Z,1.50
2022-08-28T18:59:17.657Z,1.40
2022-08-28T19:01:44.431Z,1.48
2022-08-28T19:04:11.127Z,1.77
2022-08-28T19:06:37.743Z,1.58
2022-08-28T19:09:05.530Z,2.30
2022-08-28T19:11:32.519Z,1.48
2022-08-28T19:13:59.630Z,1.70
2022-08-28T19:16:31.537Z,1.58
2022-08-28T19:18:58.159Z,1.92
2022-08-28T19:21:24.881Z,1.90
2022-08-28T19:23:55.960Z,1.70
2022-08-28T19:26:24.538Z,1.70
2022-08-28T19:28:51.472Z,1.58
2022-08-28T19:31:18.224Z,1.80
2022-08-28T19:33:46.364Z,1.80
2022-08-28T19:36:14.061Z,2.10
2022-08-28T19:38:40.854Z,1.88
2022-08-28T19:41:08.928Z,1.67
2022-08-28T19:43:42.920Z,1.60
2022-08-28T19:46:18.477Z,1.75
2022-08-28T19:48:48.039Z,1.48
2022-08-28T19:51:17.542Z,2.10
2022-08-28T19:53:56.727Z,1.95
2022-08-28T19:56:27.235Z,1.90
2022-08-28T19:58:54.849Z,1.50
2022-08-28T20:01:21.441Z,1.95
2022-08-28T20:03:48.013Z,2.70
2022-08-28T20:06:15.140Z,3.05
2022-08-28T20:08:41.694Z,1.83
2022-08-28T20:11:09.618Z,1.67
2022-08-28T20:13:36.194Z,1.60
2022-08-28T20:16:04.717Z,1.70
2022-08-28T20:18:31.307Z,1.63
2022-08-28T20:20:57.803Z,1.85
2022-08-28T20:23:24.322Z,1.80
2022-08-28T20:25:51.606Z,1.73
2022-08-28T20:28:18.837Z,2.15
2022-08-28T20:30:46.697Z,1.63
2022-08-28T20:33:13.507Z,1.70
2022-08-28T20:35:40.212Z,1.50
2022-08-28T20:38:06.892Z,2.20
2022-08-28T20:40:33.568Z,2.03
2022-08-28T20:43:00.638Z,1.98
2022-08-28T20:45:27.305Z,1.90
2022-08-28T20:47:53.862Z,2.13
2022-08-28T20:50:20.435Z,2.05
2022-08-28T20:52:46.947Z,1.85
2022-08-28T20:55:14.789Z,2.00
2022-08-28T20:57:41.295Z,1.77
2022-08-28T21:00:09.971Z,2.85
2022-08-28T21:02:36.837Z,2.25
2022-08-28T21:05:04.453Z,2.10
2022-08-28T21:07:33.327Z,2.15
2022-08-28T21:10:04.901Z,2.80
2022-08-28T21:12:35.519Z,2.35
2022-08-28T21:15:02.312Z,2.30
2022-08-28T21:17:30.763Z,2.20
2022-08-28T21:20:03.155Z,3.08
2022-08-28T21:22:31.280Z,2.90
2022-08-28T21:24:57.876Z,2.47
2022-08-28T21:27:24.762Z,2.97
2022-08-28T21:29:51.301Z,3.72
2022-08-28T21:32:17.987Z,2.72
2022-08-28T21:34:44.753Z,2.38
2022-08-28T21:37:11.302Z,2.58
2022-08-28T21:39:37.832Z,2.30
2022-08-28T21:42:04.351Z,3.13
2022-08-28T21:44:30.950Z,2.33
2022-08-28T21:46:58.696Z,2.50
2022-08-28T21:49:25.207Z,2.78
2022-08-28T21:51:51.762Z,2.40
2022-08-28T21:54:19.456Z,2.80
2022-08-28T21:56:46.216Z,2.17
2022-08-28T21:59:12.833Z,2.70
2022-08-28T22:01:39.390Z,2.03
2022-08-28T22:04:06.223Z,2.30
2022-08-28T22:06:33.338Z,2.50
2022-08-28T22:08:59.941Z,2.70
2022-08-28T22:11:27.085Z,2.55
2022-08-28T22:13:55.074Z,2.50
2022-08-28T22:16:21.803Z,2.30
2022-08-28T22:18:48.341Z,2.38
2022-08-28T22:21:36.784Z,2.58
2022-08-28T22:24:03.630Z,3.20
2022-08-28T22:26:30.306Z,2.88
2022-08-28T22:28:57.467Z,2.60
2022-08-28T22:31:24.636Z,2.55
2022-08-28T22:33:51.274Z,2.50
2022-08-28T22:36:19.275Z,2.95
2022-08-28T22:38:52.977Z,2.60
2022-08-28T22:41:20.191Z,2.60
2022-08-28T22:43:50.526Z,2.63
2022-08-28T22:46:18.728Z,2.72
2022-08-28T22:48:45.945Z,2.50
2022-08-28T22:51:15.482Z,2.42
2022-08-28T22:53:43.605Z,2.33
2022-08-28T22:56:11.652Z,2.30
2022-08-28T22:58:38.761Z,3.15
2022-08-28T23:01:17.856Z,2.67
2022-08-28T23:03:45.132Z,2.70
2022-08-28T23:06:12.356Z,2.60
2022-08-28T23:08:38.864Z,3.08
2022-08-28T23:11:06.005Z,3.00
2022-08-28T23:13:32.989Z,2.97
2022-08-28T23:15:59.854Z,3.15
2022-08-28T23:18:26.513Z,3.03
2022-08-28T23:20:55.169Z,3.00
2022-08-28T23:23:22.978Z,3.00
2022-08-28T23:25:50.414Z,2.70
2022-08-28T23:28:17.782Z,3.10
2022-08-28T23:30:48.605Z,3.05
2022-08-28T23:33:23.753Z,3.53
2022-08-28T23:35:51.029Z,3.45
2022-08-28T23:38:17.563Z,2.95
2022-08-28T23:40:44.404Z,3.40
2022-08-28T23:43:11.161Z,3.33
2022-08-28T23:45:39.798Z,3.10
2022-08-28T23:48:06.658Z,2.80
2022-08-28T23:50:33.626Z,3.08
2022-08-28T23:53:01.429Z,2.72
2022-08-28T23:55:28.085Z,3.10
2022-08-28T23:57:54.623Z,2.95
